Flight Track Log - Related Links

Times and Time Zones

All times are in EDT time to prevent confusion due to time zone crossing. See the SKW6345 flight status page for this flight to view local times or setup timezone preferences in your user account.

Time Position Orientation Groundspeed Altitude Reporting Facility
EDT Latitude Longitude Course Direction KTS MPH feet Rate Location/Type
Tue 07:04:03 AM 47.9286 -97.1822 227° Southwest 145 167 1,900  Level Minneapolis Center
Tue 07:05:01 AM 47.8967 -97.2200 218° Southwest 176 203 3,400 2,441 Climbing Minneapolis Center
Tue 07:06:01 AM 47.8550 -97.2781 223° Southwest 192 221 6,700 3,273 Climbing Minneapolis Center
Tue 07:07:00 AM 47.6174 -97.6467 224° Southwest  Level FlightAware Approximate
Tue 07:07:02 AM 47.8117 -97.3467 227° Southwest 209 241 10,000  Level Minneapolis Center
Tue 07:08:00 AM 47.5359 -97.7631 224° Southwest  Level FlightAware Approximate
Tue 07:08:02 AM 47.7614 -97.4264 227° Southwest 239 275 12,400  Level Minneapolis Center
Tue 07:09:00 AM 47.4582 -97.8849 227° Southwest  Level FlightAware Approximate
Tue 07:09:03 AM 47.7003 -97.5192 226° Southwest 286 329 14,500  Level Minneapolis Center
Tue 07:10:04 AM 47.6356 -97.6208 227° Southwest 316 364 16,800 2,231 Climbing Minneapolis Center
Tue 07:11:04 AM 47.5686 -97.7247 226° Southwest 333 383 19,000 1,934 Climbing Minneapolis Center
Tue 07:12:05 AM 47.4969 -97.8350 226° Southwest 353 406 20,700 1,785 Climbing Minneapolis Center
Tue 07:13:05 AM 47.4225 -97.9478 226° Southwest 365 420 22,600 1,587 Climbing Minneapolis Center
Tue 07:14:06 AM 47.3469 -98.0622 226° Southwest 379 436 23,900 1,339 Climbing Minneapolis Center
Tue 07:15:06 AM 47.2681 -98.1806 226° Southwest 397 457 25,300 1,388 Climbing Minneapolis Center
Tue 07:16:07 AM 47.1894 -98.2992 226° Southwest 403 464 26,700 1,180 Climbing Minneapolis Center
Tue 07:17:08 AM 47.1100 -98.4186 226° Southwest 405 466 27,700 893 Climbing Minneapolis Center
Tue 07:18:08 AM 47.0256 -98.5433 225° Southwest 417 480 28,500 893 Climbing Minneapolis Center
Tue 07:19:09 AM 46.9397 -98.6700 225° Southwest 428 493 29,500 738 Climbing Minneapolis Center
Tue 07:20:10 AM 46.8367 -98.7644 212° Southwest 435 501 30,000 246 Climbing Minneapolis Center
Tue 07:21:11 AM 46.7069 -98.8700 209° Southwest 443 510 30,000  Level Minneapolis Center
Tue 07:22:11 AM 46.5978 -98.9617 210° Southwest 449 517 30,000  Level Minneapolis Center
Tue 07:23:12 AM 46.5111 -99.0372 211° Southwest 452 520 30,000 246 Level Minneapolis Center
Tue 07:24:13 AM 46.3789 -99.1483 210° Southwest 456 525 30,500 590 Climbing Minneapolis Center
Tue 07:25:14 AM 46.2683 -99.2400 210° Southwest 458 527 31,200 738 Climbing Minneapolis Center
Tue 07:26:15 AM 46.1589 -99.3322 210° Southwest 456 525 32,000 393 Climbing Minneapolis Center
Tue 07:27:16 AM 46.0472 -99.4222 209° Southwest 457 526 32,000  Level Minneapolis Center
Tue 07:28:16 AM 45.9367 -99.5133 210° Southwest 458 527 32,000  Level Minneapolis Center
Tue 07:29:17 AM 45.8269 -99.6014 209° Southwest 456 525 32,000  Level Minneapolis Center
Tue 07:30:18 AM 45.7169 -99.6883 209° Southwest 454 522 32,000  Level Minneapolis Center
Tue 07:31:19 AM 45.6078 -99.7769 210° Southwest 453 521 32,000  Level Minneapolis Center
Tue 07:32:20 AM 45.4989 -99.8644 209° Southwest 452 520 32,000  Level Minneapolis Center
Tue 07:33:21 AM 45.3903 -99.9503 209° Southwest 450 518 32,000  Level Minneapolis Center
Tue 07:34:22 AM 45.2644 -100.0525 210° Southwest 444 511 32,000  Level Minneapolis Center
Tue 07:35:23 AM 45.1611 -100.1342 209° Southwest 436 502 32,000  Level Minneapolis Center
Tue 07:36:24 AM 45.0589 -100.2153 209° Southwest 432 497 32,000  Level Minneapolis Center
Tue 07:37:25 AM 44.9764 -100.2786 209° Southwest 429 494 32,000  Level Minneapolis Center
Tue 07:38:26 AM 44.8531 -100.3769 209° Southwest 428 493 32,000  Level Minneapolis Center
Tue 07:39:39 AM 44.7272 -100.4744 209° Southwest 430 495 32,000  Level Minneapolis Center
Tue 07:40:40 AM 44.6217 -100.5553 209° Southwest 433 498 32,000  Level Minneapolis Center
Tue 07:41:41 AM 44.5153 -100.6361 208° Southwest 435 501 32,000  Level Minneapolis Center
Tue 07:42:42 AM 44.3878 -100.7336 209° Southwest 435 501 32,000  Level Minneapolis Center
Tue 07:43:44 AM 44.2817 -100.8161 209° Southwest 436 502 32,000  Level Minneapolis Center
Tue 07:44:45 AM 44.1744 -100.8975 209° Southwest 438 504 32,000  Level Minneapolis Center
Tue 07:45:46 AM 44.0675 -100.9786 209° Southwest 438 504 32,000  Level Minneapolis Center
Tue 07:46:47 AM 43.9625 -101.0600 209° Southwest 435 501 32,000  Level Minneapolis Center
Tue 07:47:48 AM 43.8561 -101.1378 208° Southwest 434 499 32,000  Level Minneapolis Center
Tue 07:48:49 AM 43.7519 -101.2175 209° Southwest 430 495 32,000  Level Minneapolis Center
Tue 07:49:50 AM 43.6478 -101.2944 208° Southwest 426 490 32,000  Level Minneapolis Center
Tue 07:50:20 AM 43.5861 -101.3411 209° Southwest 424 488 32,000  Level Denver Center
Tue 07:51:21 AM 43.4833 -101.4183 209° Southwest 420 483 32,000  Level Denver Center
Tue 07:52:21 AM 43.3800 -101.4933 208° Southwest 420 483 32,000  Level Denver Center
Tue 07:53:21 AM 43.2772 -101.5686 208° Southwest 420 483 32,000  Level Denver Center
Tue 07:54:21 AM 43.1733 -101.6372 206° Southwest 415 478 32,000  Level Denver Center
Tue 07:55:22 AM 43.0694 -101.7064 206° Southwest 414 476 32,000  Level Denver Center
Tue 07:56:22 AM 42.9669 -101.7756 206° Southwest 411 473 32,000  Level Denver Center
Tue 07:57:22 AM 42.8664 -101.8422 206° Southwest 410 472 32,000  Level Denver Center
Tue 07:58:22 AM 42.7697 -101.9075 206° Southwest 406 467 32,000  Level Denver Center
Tue 07:59:23 AM 42.6728 -101.9717 206° Southwest 405 466 32,000  Level Denver Center
Tue 08:00:23 AM 42.5592 -102.0453 206° Southwest 404 465 32,000  Level Denver Center
Tue 08:01:23 AM 42.4625 -102.1094 206° Southwest 403 464 32,000  Level Denver Center
Tue 08:02:24 AM 42.3647 -102.1736 206° Southwest 407 468 32,000  Level Denver Center
Tue 08:03:24 AM 42.2494 -102.2486 206° Southwest 411 473 32,000  Level Denver Center
Tue 08:04:25 AM 42.1492 -102.3136 206° Southwest 414 476 32,000  Level Denver Center
Tue 08:05:25 AM 42.0475 -102.3797 206° Southwest 420 483 32,000  Level Denver Center
Tue 08:06:25 AM 41.9458 -102.4450 206° Southwest 422 486 32,000  Level Denver Center
Tue 08:07:26 AM 41.8269 -102.5206 205° Southwest 421 484 32,000  Level Denver Center
Tue 08:08:26 AM 41.7314 -102.5817 206° Southwest 424 488 32,000  Level Denver Center
Tue 08:09:27 AM 41.6233 -102.6506 205° Southwest 422 486 32,000  Level Denver Center
Tue 08:10:27 AM 41.5039 -102.7258 205° Southwest 423 487 32,000  Level Denver Center
Tue 08:11:28 AM 41.4014 -102.7908 205° Southwest 424 488 32,000  Level Denver Center
Tue 08:12:28 AM 41.2992 -102.8558 206° Southwest 424 488 32,000  Level Denver Center
Tue 08:13:29 AM 41.1889 -102.9256 205° Southwest 424 488 32,000  Level Denver Center
Tue 08:14:29 AM 41.0836 -103.0022 209° Southwest 414 476 32,000  Level Denver Center
Tue 08:15:30 AM 41.0072 -103.1053 226° Southwest 407 468 32,000  Level Denver Center
Tue 08:16:31 AM 40.9278 -103.2189 227° Southwest 404 465 32,000  Level Denver Center
Tue 08:17:31 AM 40.8497 -103.3261 226° Southwest 401 461 32,000 -298 Level Denver Center
Tue 08:18:32 AM 40.7708 -103.4367 227° Southwest 409 471 31,400 -836 Descending Denver Center
Tue 08:19:33 AM 40.6878 -103.5500 226° Southwest 426 490 30,300 -1,785 Descending Denver Center
Tue 08:20:33 AM 40.6036 -103.6647 226° Southwest 430 495 27,800 -2,479 Descending Denver Center
Tue 08:21:34 AM 40.5258 -103.7733 227° Southwest 408 470 25,300 -2,557 Descending Denver Center
Tue 08:22:35 AM 40.4472 -103.8814 226° Southwest 395 455 22,600 -2,164 Descending Denver Center
Tue 08:23:36 AM 40.3739 -103.9831 227° Southwest 379 436 20,900 -1,587 Descending Denver Center
Tue 08:24:36 AM 40.2978 -104.0706 221° Southwest 362 417 19,400 -1,488 Descending Denver Center
Tue 08:25:37 AM 40.2203 -104.1522 219° Southwest 356 410 17,900 -1,475 Descending Denver Center
Tue 08:26:38 AM 40.1467 -104.2322 220° Southwest 345 397 16,400 -1,770 Descending Denver Center
Tue 08:27:39 AM 40.0775 -104.3031 218° Southwest 311 358 14,300 -2,311 Descending Denver Center
Tue 08:28:40 AM 40.0044 -104.3764 218° Southwest 315 362 11,700 -2,460 Descending Denver Center
Tue 08:29:19 AM 39.9667 -104.4167 219° Southwest 297 342 10,200 -2,121 Descending Denver TRACON
Tue 08:30:19 AM 39.9000 -104.4833 218° Southwest 267 307 8,200 -2,000 Descending Denver TRACON

Login

Don't have an account? Register now (free) for customized features, flight alerts, and more!